createdAt,value
2022-09-20T00:01:32.610Z,90.43
2022-09-20T00:04:05.512Z,92.10
2022-09-20T00:06:34.149Z,91.82
2022-09-20T00:09:02.904Z,91.53
2022-09-20T00:11:34.146Z,91.46
2022-09-20T00:14:03.626Z,91.21
2022-09-20T00:16:39.466Z,91.45
2022-09-20T00:19:07.576Z,91.93
2022-09-20T00:21:37.617Z,90.96
2022-09-20T00:24:05.986Z,90.81
2022-09-20T00:26:33.625Z,90.89
2022-09-20T00:29:01.601Z,90.58
2022-09-20T00:31:28.648Z,90.90
2022-09-20T00:34:16.829Z,90.15
2022-09-20T00:36:44.811Z,90.25
2022-09-20T00:39:15.566Z,90.39
2022-09-20T00:41:43.129Z,90.45
2022-09-20T00:45:24.517Z,90.91
2022-09-20T00:48:15.872Z,90.01
2022-09-20T00:50:53.211Z,89.10
2022-09-20T00:53:31.828Z,89.93
2022-09-20T00:56:20.213Z,89.62
2022-09-20T00:59:19.711Z,90.72
2022-09-20T01:02:03.055Z,90.86
2022-09-20T01:04:30.710Z,89.16
2022-09-20T01:07:02.768Z,90.67
2022-09-20T01:09:29.713Z,90.60
2022-09-20T01:11:58.282Z,90.49
2022-09-20T01:14:27.024Z,90.81
2022-09-20T01:16:57.925Z,89.87
2022-09-20T01:20:09.096Z,89.32
2022-09-20T01:23:03.530Z,90.41
2022-09-20T01:26:16.642Z,89.64
2022-09-20T01:28:47.938Z,90.10
2022-09-20T01:31:33.396Z,89.94
2022-09-20T01:34:20.607Z,90.50
2022-09-20T01:37:06.232Z,90.10
2022-09-20T01:40:05.785Z,90.15
2022-09-20T01:42:38.326Z,89.07
2022-09-20T01:45:27.805Z,89.60
2022-09-20T01:48:13.021Z,89.07
2022-09-20T01:51:38.228Z,89.60
2022-09-20T01:55:16.576Z,89.18
2022-09-20T01:58:37.628Z,88.96
2022-09-20T02:02:03.752Z,88.65
2022-09-20T02:05:10.446Z,89.29
2022-09-20T02:08:41.326Z,88.70
2022-09-20T02:11:21.930Z,89.14
2022-09-20T02:14:06.299Z,88.78
2022-09-20T02:16:50.488Z,89.41
2022-09-20T02:19:50.390Z,89.14
2022-09-20T02:22:41.780Z,89.15
2022-09-20T02:25:23.821Z,89.46
2022-09-20T02:28:22.254Z,89.71
2022-09-20T02:31:48.870Z,89.92
2022-09-20T02:35:17.254Z,90.47
2022-09-20T02:38:20.640Z,90.33
2022-09-20T02:41:21.857Z,89.77
2022-09-20T02:44:07.263Z,89.63
2022-09-20T02:47:17.118Z,88.89
2022-09-20T02:50:15.252Z,90.32
2022-09-20T02:53:37.850Z,89.81
2022-09-20T02:56:41.361Z,89.79
2022-09-20T03:00:05.124Z,90.40
2022-09-20T03:03:31.284Z,89.76
2022-09-20T03:06:39.858Z,90.12
2022-09-20T03:10:07.578Z,91.46
2022-09-20T03:13:04.728Z,91.09
2022-09-20T03:15:58.444Z,91.26
2022-09-20T03:19:18.926Z,90.92
2022-09-20T03:23:01.724Z,90.75
2022-09-20T03:26:16.058Z,90.82
2022-09-20T03:30:17.651Z,90.57
2022-09-20T03:33:24.695Z,91.07
2022-09-20T03:37:01.449Z,91.42
2022-09-20T03:40:17.420Z,91.09
2022-09-20T03:42:52.711Z,91.49
2022-09-20T03:45:57.907Z,90.44
2022-09-20T03:48:37.414Z,91.19
2022-09-20T03:51:47.386Z,90.18
2022-09-20T03:54:46.903Z,90.33
2022-09-20T03:57:46.406Z,91.19
2022-09-20T04:01:28.015Z,90.82
2022-09-20T04:04:19.649Z,91.20
2022-09-20T04:07:34.343Z,91.69
2022-09-20T04:10:30.029Z,90.71
2022-09-20T04:13:40.038Z,91.27
2022-09-20T04:16:51.252Z,90.47
2022-09-20T04:19:41.174Z,91.85
2022-09-20T04:22:09.314Z,92.27
2022-09-20T04:25:20.345Z,91.18
2022-09-20T04:28:53.545Z,91.39
2022-09-20T04:31:55.496Z,92.38
2022-09-20T04:34:51.574Z,91.55
2022-09-20T04:37:32.971Z,90.38
2022-09-20T04:40:26.159Z,91.78
2022-09-20T04:43:51.109Z,91.41
2022-09-20T04:47:00.955Z,90.13
2022-09-20T04:50:06.126Z,90.82
2022-09-20T04:53:18.964Z,90.13
2022-09-20T04:56:50.409Z,90.48
2022-09-20T05:00:13.831Z,91.42
2022-09-20T05:03:23.091Z,90.55
2022-09-20T05:06:26.966Z,90.33
2022-09-20T05:09:43.993Z,91.18
2022-09-20T05:13:00.324Z,91.35
2022-09-20T05:15:47.944Z,91.02
2022-09-20T05:19:16.729Z,91.72
2022-09-20T05:22:48.505Z,91.37
2022-09-20T05:25:48.098Z,91.66
2022-09-20T05:29:05.018Z,91.11
2022-09-20T05:32:14.773Z,90.57
2022-09-20T05:35:36.537Z,90.45
2022-09-20T05:38:40.968Z,90.09
2022-09-20T05:41:56.986Z,90.84
2022-09-20T05:45:18.130Z,88.93
2022-09-20T05:48:15.236Z,90.20
2022-09-20T05:51:20.574Z,89.37
2022-09-20T05:54:39.123Z,90.37
2022-09-20T05:57:35.541Z,89.66
2022-09-20T06:00:29.856Z,88.06
2022-09-20T06:03:30.559Z,88.53
2022-09-20T06:06:32.806Z,88.89
2022-09-20T06:09:43.422Z,87.44
2022-09-20T06:12:52.842Z,88.21
2022-09-20T06:15:52.132Z,88.06
2022-09-20T06:18:29.298Z,88.59
2022-09-20T06:21:27.167Z,88.71
2022-09-20T06:24:00.872Z,88.87
2022-09-20T06:26:36.844Z,88.68
2022-09-20T06:29:11.576Z,87.49
2022-09-20T06:31:38.567Z,88.39
2022-09-20T06:34:14.742Z,88.64
2022-09-20T06:37:10.354Z,88.79
2022-09-20T06:40:20.008Z,87.82
2022-09-20T06:42:47.628Z,87.20
2022-09-20T06:45:14.652Z,86.97
2022-09-20T06:47:41.876Z,87.48
2022-09-20T06:50:17.117Z,86.14
2022-09-20T06:52:45.408Z,85.86
2022-09-20T06:55:29.019Z,87.92
2022-09-20T06:57:56.771Z,87.85
2022-09-20T07:00:24.478Z,88.99
2022-09-20T07:02:51.448Z,89.29
2022-09-20T07:05:21.935Z,88.70
2022-09-20T07:07:49.538Z,88.93
2022-09-20T07:10:16.883Z,88.25
2022-09-20T07:12:43.825Z,88.54
2022-09-20T07:15:14.972Z,86.81
2022-09-20T07:17:45.654Z,87.28
2022-09-20T07:20:14.149Z,87.87
2022-09-20T07:22:42.731Z,89.16
2022-09-20T07:25:09.914Z,88.50
2022-09-20T07:27:36.889Z,87.15
2022-09-20T07:30:05.356Z,88.61
2022-09-20T07:32:32.483Z,89.15
2022-09-20T07:34:59.478Z,88.42
2022-09-20T07:37:26.440Z,89.10
2022-09-20T07:39:53.470Z,88.00
2022-09-20T07:42:20.419Z,87.15
2022-09-20T07:44:47.558Z,87.05
2022-09-20T07:47:15.060Z,86.03
2022-09-20T07:49:42.019Z,85.20
2022-09-20T07:52:11.144Z,85.86
2022-09-20T07:54:38.585Z,86.22
2022-09-20T07:57:05.742Z,85.52
2022-09-20T07:59:32.706Z,85.30
2022-09-20T08:02:00.656Z,85.05
2022-09-20T08:04:27.732Z,85.39
2022-09-20T08:06:54.694Z,84.34
2022-09-20T08:09:23.104Z,83.49
2022-09-20T08:11:50.201Z,83.52
2022-09-20T08:14:18.340Z,82.50
2022-09-20T08:16:48.714Z,83.17
2022-09-20T08:19:23.032Z,82.05
2022-09-20T08:21:53.901Z,81.79
2022-09-20T08:24:21.291Z,82.34
2022-09-20T08:26:48.625Z,81.99
2022-09-20T08:29:15.673Z,82.27
2022-09-20T08:31:43.270Z,80.43
2022-09-20T08:34:14.801Z,79.94
2022-09-20T08:36:50.066Z,79.85
2022-09-20T08:42:43.646Z,80.09
2022-09-20T08:45:33.844Z,78.89
2022-09-20T08:48:06.340Z,78.46
2022-09-20T08:50:34.671Z,78.14
2022-09-20T08:53:05.685Z,77.08
2022-09-20T08:55:37.521Z,77.39
2022-09-20T08:58:08.436Z,77.66
2022-09-20T09:00:38.986Z,76.71
2022-09-20T09:03:14.294Z,75.81
2022-09-20T09:05:46.604Z,78.26
2022-09-20T09:08:27.408Z,76.53
2022-09-20T09:11:00.038Z,74.75
2022-09-20T09:14:35.384Z,73.26
2022-09-20T09:17:02.366Z,73.77
2022-09-20T09:19:51.274Z,75.00
2022-09-20T09:22:49.715Z,74.97
2022-09-20T09:25:32.280Z,72.29
2022-09-20T09:28:07.272Z,71.19
2022-09-20T09:30:42.698Z,70.29
2022-09-20T09:33:30.966Z,70.53
2022-09-20T09:36:16.744Z,72.71
2022-09-20T09:38:46.303Z,70.75
2022-09-20T09:41:33.284Z,67.61
2022-09-20T09:44:09.886Z,67.60
2022-09-20T09:46:42.298Z,67.77
2022-09-20T09:49:17.150Z,66.69
2022-09-20T09:52:24.270Z,65.17
2022-09-20T09:55:02.765Z,65.42
2022-09-20T09:58:23.828Z,66.21
2022-09-20T10:00:54.054Z,67.43
2022-09-20T10:04:17.175Z,68.15
2022-09-20T10:07:37.611Z,68.56
2022-09-20T10:10:32.447Z,75.55
2022-09-20T10:13:42.066Z,76.43
2022-09-20T10:16:32.749Z,76.45
2022-09-20T10:19:22.686Z,76.72
2022-09-20T10:23:21.434Z,74.53
2022-09-20T10:26:21.620Z,74.36
2022-09-20T10:29:37.332Z,76.06
2022-09-20T10:33:15.027Z,75.62
2022-09-20T10:36:29.738Z,77.29
2022-09-20T10:39:26.249Z,73.04
2022-09-20T10:42:57.583Z,73.14
2022-09-20T10:46:14.112Z,67.38
2022-09-20T10:49:03.912Z,67.55
2022-09-20T10:52:21.090Z,71.18
2022-09-20T10:55:26.618Z,73.16
2022-09-20T10:59:07.699Z,71.40
2022-09-20T11:02:04.239Z,75.01
2022-09-20T11:05:15.127Z,74.00
2022-09-20T11:08:15.303Z,71.76
2022-09-20T11:11:14.130Z,74.31
2022-09-20T11:14:16.081Z,73.27
2022-09-20T11:17:19.373Z,70.36
2022-09-20T11:20:14.165Z,70.96
2022-09-20T11:23:10.257Z,72.53
2022-09-20T11:26:07.494Z,69.70
2022-09-20T11:28:40.865Z,70.36
2022-09-20T11:31:35.464Z,68.17
2022-09-20T11:34:32.725Z,65.51
2022-09-20T11:37:03.372Z,67.49
2022-09-20T11:39:55.538Z,66.37
2022-09-20T11:42:35.951Z,69.32
2022-09-20T11:45:04.524Z,68.75
2022-09-20T11:47:56.219Z,69.37
2022-09-20T11:51:26.025Z,68.66
2022-09-20T11:54:30.006Z,68.95
2022-09-20T11:57:00.581Z,68.71
2022-09-20T11:59:42.153Z,70.11
2022-09-20T12:02:40.747Z,70.50
2022-09-20T12:05:33.580Z,66.60
2022-09-20T12:08:06.919Z,70.55
2022-09-20T12:10:39.744Z,70.23
2022-09-20T12:13:24.424Z,69.28
2022-09-20T12:16:06.195Z,70.02
2022-09-20T12:18:35.858Z,70.87
2022-09-20T12:21:17.357Z,73.66
2022-09-20T12:23:57.928Z,70.20
2022-09-20T12:26:27.438Z,70.48
2022-09-20T12:29:02.383Z,71.83
2022-09-20T12:31:32.516Z,75.61
2022-09-20T12:34:10.833Z,74.40
2022-09-20T12:36:53.895Z,69.64
2022-09-20T12:39:30.005Z,67.81
2022-09-20T12:42:12.604Z,65.15
2022-09-20T12:44:49.166Z,61.71
2022-09-20T12:47:30.482Z,59.40
2022-09-20T12:50:19.230Z,61.24
2022-09-20T12:52:57.971Z,63.28
2022-09-20T12:55:45.751Z,61.02
2022-09-20T12:58:12.640Z,61.62
2022-09-20T13:00:59.254Z,60.03
2022-09-20T13:03:44.053Z,59.68
2022-09-20T13:06:20.066Z,61.68
2022-09-20T13:09:09.009Z,64.71
2022-09-20T13:11:56.899Z,65.39
2022-09-20T13:14:34.058Z,71.84
2022-09-20T13:17:18.510Z,68.99
2022-09-20T13:19:52.174Z,66.71
2022-09-20T13:22:43.464Z,68.35
2022-09-20T13:25:21.370Z,68.22
2022-09-20T13:28:24.296Z,75.17
2022-09-20T13:31:11.282Z,75.27
2022-09-20T13:33:38.373Z,77.32
2022-09-20T13:36:08.723Z,78.07
2022-09-20T13:38:38.333Z,76.53
2022-09-20T13:41:11.769Z,77.48
2022-09-20T13:43:49.997Z,75.60
2022-09-20T13:46:31.362Z,78.23
2022-09-20T13:49:21.471Z,77.18
2022-09-20T13:51:49.755Z,77.60
2022-09-20T13:54:32.671Z,75.45
2022-09-20T13:57:07.886Z,77.66
2022-09-20T13:59:44.911Z,76.43
2022-09-20T14:02:30.910Z,74.89
2022-09-20T14:05:04.370Z,77.09
2022-09-20T14:07:32.243Z,77.39
2022-09-20T14:10:00.263Z,79.28
2022-09-20T14:12:28.492Z,79.64
2022-09-20T14:14:55.904Z,79.67
2022-09-20T14:17:24.542Z,80.09
2022-09-20T14:19:55.014Z,81.22
2022-09-20T14:22:28.953Z,78.97
2022-09-20T14:25:14.007Z,79.60
2022-09-20T14:27:41.034Z,80.55
2022-09-20T14:30:35.199Z,78.83
2022-09-20T14:33:07.191Z,79.09
2022-09-20T14:35:34.449Z,76.79
2022-09-20T14:38:11.647Z,73.13
2022-09-20T14:40:45.523Z,73.53
2022-09-20T14:43:33.823Z,69.81
2022-09-20T14:46:29.628Z,67.56
2022-09-20T14:49:25.519Z,66.85
2022-09-20T14:51:54.424Z,71.76
2022-09-20T14:54:30.680Z,71.65
2022-09-20T14:56:58.998Z,70.40
2022-09-20T14:59:35.380Z,74.23
2022-09-20T15:02:21.409Z,75.99
2022-09-20T15:05:00.196Z,75.47
2022-09-20T15:07:27.421Z,75.44
2022-09-20T15:09:54.369Z,77.07
2022-09-20T15:12:21.817Z,75.19
2022-09-20T15:14:49.301Z,72.37
2022-09-20T15:17:24.406Z,74.51
2022-09-20T15:19:51.643Z,75.13
2022-09-20T15:22:18.686Z,75.18
2022-09-20T15:24:45.647Z,74.90
2022-09-20T15:27:13.666Z,76.06
2022-09-20T15:29:40.723Z,78.45
2022-09-20T15:32:10.923Z,79.94
2022-09-20T15:34:38.217Z,80.21
2022-09-20T15:37:05.191Z,82.79
2022-09-20T15:39:32.118Z,82.31
2022-09-20T15:41:59.069Z,82.11
2022-09-20T15:44:26.029Z,81.82
2022-09-20T15:46:53.619Z,82.43
2022-09-20T15:49:21.648Z,82.68
2022-09-20T15:51:48.702Z,82.28
2022-09-20T15:54:15.770Z,81.79
2022-09-20T15:56:42.878Z,81.70
2022-09-20T15:59:13.355Z,83.03
2022-09-20T16:01:45.793Z,82.98
2022-09-20T16:04:18.568Z,83.50
2022-09-20T16:06:49.462Z,82.94
2022-09-20T16:09:18.170Z,84.99
2022-09-20T16:11:45.882Z,83.58
2022-09-20T16:14:13.101Z,83.82
2022-09-20T16:16:40.935Z,84.12
2022-09-20T16:19:23.802Z,83.54
2022-09-20T16:21:58.555Z,83.22
2022-09-20T16:24:33.905Z,83.51
2022-09-20T16:27:06.031Z,83.69
2022-09-20T16:29:33.973Z,83.40
2022-09-20T16:32:05.839Z,82.33
2022-09-20T16:34:36.300Z,84.12
2022-09-20T16:37:17.023Z,84.41
2022-09-20T16:39:44.271Z,84.67
2022-09-20T16:42:13.244Z,84.70
2022-09-20T16:44:42.968Z,85.68
2022-09-20T16:47:22.232Z,85.03
2022-09-20T16:49:50.589Z,86.24
2022-09-20T16:52:17.676Z,86.27
2022-09-20T16:54:44.682Z,86.28
2022-09-20T16:57:13.305Z,85.72
2022-09-20T16:59:40.720Z,85.48
2022-09-20T17:02:12.547Z,85.01
2022-09-20T17:04:39.780Z,84.63
2022-09-20T17:07:06.787Z,85.14
2022-09-20T17:09:33.741Z,84.60
2022-09-20T17:12:01.286Z,84.65
2022-09-20T17:14:28.241Z,84.14
2022-09-20T17:16:56.478Z,84.73
2022-09-20T17:19:23.438Z,84.32
2022-09-20T17:21:51.350Z,84.51
2022-09-20T17:24:21.271Z,85.02
2022-09-20T17:26:50.712Z,85.04
2022-09-20T17:29:19.952Z,84.81
2022-09-20T17:31:55.082Z,85.32
2022-09-20T17:34:23.380Z,86.37
2022-09-20T17:36:50.801Z,86.75
2022-09-20T17:39:18.805Z,86.21
2022-09-20T17:41:48.866Z,86.04
2022-09-20T17:44:16.731Z,86.94
2022-09-20T17:46:48.376Z,86.72
2022-09-20T17:49:19.311Z,86.22
2022-09-20T17:51:51.072Z,87.13
2022-09-20T17:54:19.406Z,86.96
2022-09-20T17:56:53.410Z,86.67
2022-09-20T17:59:21.013Z,87.59
2022-09-20T18:01:51.578Z,87.55
2022-09-20T18:04:20.861Z,87.38
2022-09-20T18:06:52.848Z,86.83
2022-09-20T18:09:25.445Z,88.32
2022-09-20T18:11:55.479Z,87.83
2022-09-20T18:14:31.891Z,87.71
2022-09-20T18:17:03.491Z,87.62
2022-09-20T18:19:34.147Z,88.25
2022-09-20T18:22:02.521Z,88.26
2022-09-20T18:24:30.360Z,89.07
2022-09-20T18:26:57.426Z,88.65
2022-09-20T18:29:25.026Z,89.44
2022-09-20T18:31:54.408Z,88.69
2022-09-20T18:34:25.476Z,88.29
2022-09-20T18:36:57.018Z,88.24
2022-09-20T18:39:28.344Z,88.16
2022-09-20T18:41:55.476Z,88.19
2022-09-20T18:44:23.509Z,87.86
2022-09-20T18:46:53.350Z,87.90
2022-09-20T18:49:21.588Z,88.16
2022-09-20T18:51:51.739Z,88.62
2022-09-20T18:54:19.144Z,89.38
2022-09-20T18:56:49.644Z,89.38
2022-09-20T18:59:23.094Z,89.05
2022-09-20T19:02:30.820Z,88.98
2022-09-20T19:05:15.231Z,88.90
2022-09-20T19:08:04.642Z,89.59
2022-09-20T19:10:57.564Z,89.79
2022-09-20T19:13:44.946Z,89.62
2022-09-20T19:16:36.784Z,89.69
2022-09-20T19:19:52.368Z,89.39
2022-09-20T19:23:11.785Z,89.37
2022-09-20T19:25:46.873Z,89.43
2022-09-20T19:28:16.118Z,90.03
2022-09-20T19:30:43.873Z,90.06
2022-09-20T19:33:18.051Z,90.75
2022-09-20T19:35:51.040Z,90.39
2022-09-20T19:38:40.499Z,90.72
2022-09-20T19:41:57.969Z,89.83
2022-09-20T19:45:07.198Z,89.65
2022-09-20T19:48:13.127Z,89.16
2022-09-20T19:50:49.691Z,89.10
2022-09-20T19:53:22.219Z,89.11
2022-09-20T19:56:27.731Z,89.15
2022-09-20T19:58:56.312Z,89.66
2022-09-20T20:01:26.050Z,89.83
2022-09-20T20:03:55.756Z,89.65
2022-09-20T20:06:30.060Z,89.21
2022-09-20T20:09:39.996Z,88.90
2022-09-20T20:12:21.494Z,89.40
2022-09-20T20:15:22.096Z,88.88
2022-09-20T20:18:16.658Z,88.62
2022-09-20T20:20:51.232Z,88.72
2022-09-20T20:24:04.607Z,88.99
2022-09-20T20:26:32.053Z,88.88
2022-09-20T20:29:00.007Z,88.90
2022-09-20T20:31:27.210Z,88.65
2022-09-20T20:33:54.713Z,88.61
2022-09-20T20:36:21.809Z,88.08
2022-09-20T20:38:53.049Z,88.68
2022-09-20T20:41:21.753Z,87.90
2022-09-20T20:43:52.695Z,88.66
2022-09-20T20:46:19.727Z,90.09
2022-09-20T20:48:49.628Z,89.64
2022-09-20T20:51:21.513Z,90.05
2022-09-20T20:53:53.004Z,89.74
2022-09-20T20:56:27.449Z,89.83
2022-09-20T20:59:00.417Z,89.14
2022-09-20T21:01:36.723Z,89.88
2022-09-20T21:04:06.549Z,89.91
2022-09-20T21:06:37.142Z,90.29
2022-09-20T21:09:09.296Z,89.63
2022-09-20T21:11:44.059Z,89.90
2022-09-20T21:14:12.879Z,88.87
2022-09-20T21:16:43.227Z,89.65
2022-09-20T21:19:15.577Z,89.14
2022-09-20T21:21:47.154Z,89.55
2022-09-20T21:24:17.267Z,90.44
2022-09-20T21:26:48.870Z,90.40
2022-09-20T21:29:16.816Z,90.59
2022-09-20T21:31:46.663Z,89.84
2022-09-20T21:34:16.115Z,90.51
2022-09-20T21:36:46.882Z,89.81
2022-09-20T21:39:14.121Z,90.45
2022-09-20T21:41:41.593Z,89.39
2022-09-20T21:44:12.085Z,89.98
2022-09-20T21:46:41.896Z,88.64
2022-09-20T21:49:12.203Z,89.51
2022-09-20T21:51:45.049Z,89.11
2022-09-20T21:54:12.034Z,88.91
2022-09-20T21:56:41.217Z,88.26
2022-09-20T21:59:09.327Z,89.45
2022-09-20T22:01:40.236Z,89.51
2022-09-20T22:04:12.624Z,90.47
2022-09-20T22:06:45.141Z,91.34
2022-09-20T22:09:16.215Z,90.25
2022-09-20T22:11:47.124Z,90.94
2022-09-20T22:14:18.477Z,90.23
2022-09-20T22:16:48.364Z,90.87
2022-09-20T22:19:18.649Z,89.96
2022-09-20T22:21:51.370Z,89.93
2022-09-20T22:24:18.824Z,89.04
2022-09-20T22:26:50.695Z,89.12
2022-09-20T22:29:18.301Z,90.16
2022-09-20T22:31:47.943Z,89.91
2022-09-20T22:34:21.822Z,90.33
2022-09-20T22:36:49.415Z,89.22
2022-09-20T22:39:17.069Z,88.76
2022-09-20T22:41:44.486Z,89.82
2022-09-20T22:44:11.725Z,89.13
2022-09-20T22:46:39.536Z,89.65
2022-09-20T22:49:08.506Z,90.15
2022-09-20T22:51:36.765Z,89.22
2022-09-20T22:54:11.788Z,89.34
2022-09-20T22:56:42.246Z,89.67
2022-09-20T22:59:14.257Z,89.22
2022-09-20T23:01:47.789Z,88.77
2022-09-20T23:04:23.291Z,88.68
2022-09-20T23:06:56.204Z,88.77
2022-09-20T23:09:28.190Z,89.38
2022-09-20T23:11:55.672Z,88.36
2022-09-20T23:14:26.767Z,89.62
2022-09-20T23:16:53.773Z,89.00
2022-09-20T23:19:20.777Z,89.54
2022-09-20T23:21:47.752Z,90.46
2022-09-20T23:24:16.496Z,90.01
2022-09-20T23:26:44.858Z,90.26
2022-09-20T23:29:15.796Z,89.86
2022-09-20T23:31:46.438Z,90.91
2022-09-20T23:34:15.281Z,90.32
2022-09-20T23:36:43.321Z,91.30
2022-09-20T23:39:11.774Z,91.10
2022-09-20T23:41:39.395Z,90.63
2022-09-20T23:44:07.480Z,90.50
2022-09-20T23:46:34.866Z,89.74
2022-09-20T23:49:02.810Z,89.16
2022-09-20T23:51:30.804Z,89.22
2022-09-20T23:53:58.166Z,88.79
2022-09-20T23:56:25.269Z,89.57
2022-09-20T23:58:52.532Z,89.03
